createdAt,value
2019-02-15T00:00:38.882Z,107.83
2019-02-15T00:03:08.607Z,110.93
2019-02-15T00:05:37.766Z,107.07
2019-02-15T00:08:06.950Z,106.93
2019-02-15T00:10:36.059Z,98.43
2019-02-15T00:13:13.341Z,107.27
2019-02-15T00:15:36.230Z,102.07
2019-02-15T00:18:19.643Z,111.10
2019-02-15T00:20:59.786Z,103.50
2019-02-15T00:23:28.880Z,94.70
2019-02-15T00:25:57.986Z,96.43
2019-02-15T00:28:27.102Z,102.10
2019-02-15T00:30:56.303Z,109.70
2019-02-15T00:33:25.959Z,101.70
2019-02-15T00:35:55.159Z,100.93
2019-02-15T00:38:24.454Z,100.53
2019-02-15T00:40:53.645Z,95.30
2019-02-15T00:43:22.758Z,96.40
2019-02-15T00:46:00.641Z,87.10
2019-02-15T00:48:29.794Z,92.47
2019-02-15T00:51:07.556Z,84.30
2019-02-15T00:53:51.859Z,89.17
2019-02-15T00:56:27.493Z,82.27
2019-02-15T00:59:14.816Z,84.47
2019-02-15T01:02:03.143Z,82.53
2019-02-15T01:04:48.131Z,80.13
2019-02-15T01:07:35.588Z,87.57
2019-02-15T01:10:22.684Z,90.23
2019-02-15T01:13:00.055Z,91.30
2019-02-15T01:15:29.259Z,85.40
2019-02-15T01:17:58.398Z,94.47
2019-02-15T01:20:27.503Z,90.47
2019-02-15T01:22:56.631Z,98.23
2019-02-15T01:25:27.383Z,95.97
2019-02-15T01:28:10.866Z,94.97
2019-02-15T01:31:11.591Z,91.00
2019-02-15T01:33:48.094Z,91.70
2019-02-15T01:36:24.059Z,96.80
2019-02-15T01:39:06.048Z,96.37
2019-02-15T01:41:54.348Z,96.27
2019-02-15T01:44:31.795Z,93.53
2019-02-15T01:47:08.440Z,93.60
2019-02-15T01:49:37.640Z,101.60
2019-02-15T01:52:06.819Z,95.47
2019-02-15T01:54:35.952Z,91.47
2019-02-15T01:57:05.089Z,94.93
2019-02-15T01:59:34.294Z,96.97
2019-02-15T02:02:03.526Z,102.67
2019-02-15T02:04:32.670Z,98.87
2019-02-15T02:07:01.847Z,92.27
2019-02-15T02:09:30.967Z,93.23
2019-02-15T02:12:00.161Z,97.77
2019-02-15T02:14:30.287Z,104.60
2019-02-15T02:16:59.434Z,90.97
2019-02-15T02:19:28.561Z,90.97
2019-02-15T02:21:58.771Z,101.83
2019-02-15T02:24:28.190Z,93.40
2019-02-15T02:26:57.392Z,93.93
2019-02-15T02:29:26.556Z,96.80
2019-02-15T02:31:55.862Z,97.90
2019-02-15T02:34:25.234Z,88.67
2019-02-15T02:36:55.547Z,106.53
2019-02-15T02:39:25.232Z,98.33
2019-02-15T02:41:54.442Z,103.80
2019-02-15T02:44:23.580Z,103.53
2019-02-15T02:46:52.736Z,101.80
2019-02-15T02:49:21.857Z,95.17
2019-02-15T02:51:51.112Z,108.67
2019-02-15T02:54:20.310Z,97.70
2019-02-15T02:56:49.482Z,101.67
2019-02-15T02:59:18.595Z,100.13
2019-02-15T03:01:47.729Z,91.13
2019-02-15T03:04:16.862Z,103.97
2019-02-15T03:06:46.014Z,103.67
2019-02-15T03:09:15.215Z,95.07
2019-02-15T03:11:44.373Z,103.53
2019-02-15T03:14:14.561Z,102.33
2019-02-15T03:16:43.737Z,97.83
2019-02-15T03:19:12.915Z,106.23
2019-02-15T03:21:42.099Z,106.20
2019-02-15T03:24:11.298Z,100.03
2019-02-15T03:26:40.453Z,100.27
2019-02-15T03:29:09.801Z,95.27
2019-02-15T03:31:38.959Z,92.60
2019-02-15T03:34:08.083Z,89.13
2019-02-15T03:36:49.014Z,82.97
2019-02-15T03:39:37.348Z,85.37
2019-02-15T03:42:07.793Z,82.13
2019-02-15T03:44:36.927Z,89.83
2019-02-15T03:47:06.034Z,91.23
2019-02-15T03:49:35.131Z,83.07
2019-02-15T03:52:04.351Z,88.50
2019-02-15T03:54:33.584Z,86.83
2019-02-15T03:57:02.725Z,87.70
2019-02-15T03:59:31.916Z,82.97
2019-02-15T04:02:01.067Z,84.13
2019-02-15T04:04:30.186Z,88.10
2019-02-15T04:06:59.311Z,97.03
2019-02-15T04:09:28.430Z,88.07
2019-02-15T04:11:57.667Z,87.63
2019-02-15T04:14:32.868Z,105.77
2019-02-15T04:16:57.727Z,109.23
2019-02-15T04:19:26.864Z,111.33
2019-02-15T04:21:56.211Z,110.60
2019-02-15T04:24:25.313Z,121.73
2019-02-15T04:26:55.129Z,113.90
2019-02-15T04:29:24.329Z,114.60
2019-02-15T04:31:53.532Z,103.60
2019-02-15T04:34:22.681Z,111.60
2019-02-15T04:36:51.859Z,111.90
2019-02-15T04:39:20.987Z,107.67
2019-02-15T04:41:50.146Z,108.53
2019-02-15T04:44:19.377Z,102.97
2019-02-15T04:46:50.054Z,94.83
2019-02-15T04:49:19.451Z,96.37
2019-02-15T04:51:49.012Z,96.73
2019-02-15T04:54:18.175Z,96.20
2019-02-15T04:56:47.297Z,100.83
2019-02-15T04:59:16.489Z,99.13
2019-02-15T05:01:45.851Z,86.63
2019-02-15T05:04:14.975Z,87.50
2019-02-15T05:06:44.073Z,87.87
2019-02-15T05:09:13.223Z,85.50
2019-02-15T05:11:42.310Z,95.83
2019-02-15T05:14:11.432Z,95.97
2019-02-15T05:16:40.575Z,87.80
2019-02-15T05:19:10.661Z,92.67
2019-02-15T05:21:39.789Z,100.53
2019-02-15T05:24:09.890Z,96.50
2019-02-15T05:26:39.017Z,108.07
2019-02-15T05:29:08.135Z,107.27
2019-02-15T05:31:37.344Z,102.37
2019-02-15T05:34:06.514Z,102.37
2019-02-15T05:36:35.710Z,102.83
2019-02-15T05:39:06.651Z,101.00
2019-02-15T05:41:35.841Z,97.87
2019-02-15T05:44:05.009Z,101.10
2019-02-15T05:46:34.138Z,114.33
2019-02-15T05:49:03.290Z,107.40
2019-02-15T05:51:32.461Z,114.57
2019-02-15T05:54:01.728Z,108.70
2019-02-15T05:56:30.897Z,105.90
2019-02-15T05:59:00.115Z,111.10
2019-02-15T06:01:29.742Z,115.30
2019-02-15T06:03:58.944Z,121.57
2019-02-15T06:06:28.053Z,121.50
2019-02-15T06:08:57.406Z,131.83
2019-02-15T06:11:26.545Z,111.30
2019-02-15T06:13:55.764Z,121.23
2019-02-15T06:16:24.908Z,127.27
2019-02-15T06:18:54.059Z,121.27
2019-02-15T06:21:23.284Z,123.47
2019-02-15T06:23:52.438Z,127.20
2019-02-15T06:26:21.578Z,126.23
2019-02-15T06:28:50.811Z,131.07
2019-02-15T06:31:20.245Z,120.80
2019-02-15T06:33:49.476Z,129.00
2019-02-15T06:36:18.610Z,119.90
2019-02-15T06:38:47.742Z,122.07
2019-02-15T06:41:17.005Z,118.37
2019-02-15T06:43:46.159Z,122.27
2019-02-15T06:46:15.380Z,118.83
2019-02-15T06:48:44.530Z,113.33
2019-02-15T06:51:13.654Z,109.30
2019-02-15T06:53:42.808Z,119.37
2019-02-15T06:56:12.049Z,113.83
2019-02-15T06:58:53.694Z,126.27
2019-02-15T07:01:29.009Z,123.57
2019-02-15T07:04:08.826Z,121.83
2019-02-15T07:06:38.038Z,115.73
2019-02-15T07:09:07.227Z,126.27
2019-02-15T07:11:36.390Z,125.90
2019-02-15T07:14:05.566Z,113.70
2019-02-15T07:16:34.680Z,118.87
2019-02-15T07:19:03.811Z,119.80
2019-02-15T07:21:32.926Z,133.17
2019-02-15T07:24:02.078Z,128.77
2019-02-15T07:26:31.241Z,133.97
2019-02-15T07:29:00.386Z,123.60
2019-02-15T07:31:29.643Z,129.63
2019-02-15T07:33:58.764Z,129.80
2019-02-15T07:36:27.880Z,143.53
2019-02-15T07:38:57.019Z,139.37
2019-02-15T07:41:26.224Z,128.90
2019-02-15T07:43:55.325Z,138.43
2019-02-15T07:46:24.494Z,136.70
2019-02-15T07:48:53.660Z,129.40
2019-02-15T07:51:22.858Z,133.77
2019-02-15T07:53:51.972Z,117.70
2019-02-15T07:56:21.170Z,120.73
2019-02-15T07:58:50.290Z,118.40
2019-02-15T08:01:19.415Z,117.43
2019-02-15T08:03:48.583Z,110.33
2019-02-15T08:06:17.755Z,98.33
2019-02-15T08:08:46.974Z,104.43
2019-02-15T08:11:17.232Z,102.97
2019-02-15T08:13:46.420Z,108.70
2019-02-15T08:16:15.714Z,113.37
2019-02-15T08:18:44.831Z,105.60
2019-02-15T08:21:14.528Z,97.07
2019-02-15T08:23:43.721Z,96.43
2019-02-15T08:26:12.848Z,100.47
2019-02-15T08:28:41.965Z,111.50
2019-02-15T08:31:11.126Z,110.53
2019-02-15T08:33:40.234Z,100.70
2019-02-15T08:36:09.334Z,100.30
2019-02-15T08:38:38.496Z,96.23
2019-02-15T08:41:07.645Z,91.33
2019-02-15T08:43:37.915Z,93.97
2019-02-15T08:46:07.074Z,92.23
2019-02-15T08:48:36.266Z,98.10
2019-02-15T08:51:05.892Z,107.40
2019-02-15T08:53:35.096Z,85.77
2019-02-15T08:56:04.232Z,89.40
2019-02-15T08:58:33.362Z,94.67
2019-02-15T09:01:02.518Z,97.23
2019-02-15T09:03:32.632Z,101.13
2019-02-15T09:06:01.842Z,93.80
2019-02-15T09:08:30.986Z,100.50
2019-02-15T09:11:02.434Z,99.23
2019-02-15T09:13:31.695Z,109.17
2019-02-15T09:16:09.810Z,127.73
2019-02-15T09:18:31.616Z,115.43
2019-02-15T09:21:00.729Z,98.97
2019-02-15T09:23:29.816Z,89.50
2019-02-15T09:25:58.913Z,91.50
2019-02-15T09:28:33.213Z,85.03
2019-02-15T09:31:02.424Z,85.63
2019-02-15T09:33:31.524Z,96.90
2019-02-15T09:36:00.632Z,87.87
2019-02-15T09:38:30.531Z,88.17
2019-02-15T09:40:59.693Z,84.13
2019-02-15T09:43:28.810Z,77.57
2019-02-15T09:45:58.032Z,72.20
2019-02-15T09:48:27.146Z,73.90
2019-02-15T09:50:56.303Z,70.83
2019-02-15T09:53:25.424Z,71.30
2019-02-15T09:55:54.534Z,64.77
2019-02-15T09:58:23.673Z,67.30
2019-02-15T10:00:52.834Z,66.57
2019-02-15T10:03:21.956Z,66.80
2019-02-15T10:05:51.051Z,61.50
2019-02-15T10:08:20.174Z,63.90
2019-02-15T10:10:49.295Z,69.77
2019-02-15T10:13:18.426Z,81.20
2019-02-15T10:15:47.539Z,72.20
2019-02-15T10:18:16.745Z,59.37
2019-02-15T10:20:45.917Z,57.00
2019-02-15T10:23:15.124Z,54.83
2019-02-15T10:25:44.270Z,52.27
2019-02-15T10:28:13.386Z,51.10
2019-02-15T10:30:42.566Z,51.50
2019-02-15T10:33:11.815Z,52.23
2019-02-15T10:35:41.082Z,52.03
2019-02-15T10:38:10.329Z,50.50
2019-02-15T10:40:39.582Z,48.50
2019-02-15T10:43:09.528Z,47.70
2019-02-15T10:45:38.774Z,53.43
2019-02-15T10:48:10.683Z,46.73
2019-02-15T10:50:40.115Z,50.63
2019-02-15T10:53:10.990Z,50.57
2019-02-15T10:55:40.128Z,70.13
2019-02-15T10:58:09.412Z,61.30
2019-02-15T11:00:38.610Z,57.07
2019-02-15T11:03:07.729Z,49.90
2019-02-15T11:05:36.983Z,44.80
2019-02-15T11:08:06.126Z,41.93
2019-02-15T11:10:35.322Z,42.23
2019-02-15T11:13:04.502Z,45.07
2019-02-15T11:15:33.614Z,50.30
2019-02-15T11:18:02.768Z,42.30
2019-02-15T11:20:32.970Z,44.40
2019-02-15T11:23:02.271Z,52.10
2019-02-15T11:25:32.709Z,49.13
2019-02-15T11:28:01.847Z,47.50
2019-02-15T11:30:31.006Z,46.73
2019-02-15T11:33:00.123Z,42.90
2019-02-15T11:35:29.256Z,45.13
2019-02-15T11:37:58.390Z,45.23
2019-02-15T11:40:27.508Z,43.73
2019-02-15T11:42:56.621Z,43.80
2019-02-15T11:45:25.706Z,44.90
2019-02-15T11:47:54.826Z,47.00
2019-02-15T11:50:23.957Z,42.47
2019-02-15T11:52:53.172Z,39.03
2019-02-15T11:55:22.349Z,44.50
2019-02-15T11:57:51.548Z,43.93
2019-02-15T12:00:25.446Z,42.03
2019-02-15T12:02:54.553Z,44.37
2019-02-15T12:05:23.706Z,46.90
2019-02-15T12:07:52.859Z,49.57
2019-02-15T12:10:22.146Z,48.33
2019-02-15T12:12:51.547Z,46.90
2019-02-15T12:15:20.699Z,55.57
2019-02-15T12:17:49.961Z,63.40
2019-02-15T12:20:19.119Z,74.13
2019-02-15T12:22:48.225Z,90.60
2019-02-15T12:25:17.451Z,84.17
2019-02-15T12:27:46.558Z,60.43
2019-02-15T12:30:15.922Z,57.10
2019-02-15T12:32:45.123Z,61.33
2019-02-15T12:35:14.335Z,54.10
2019-02-15T12:37:43.669Z,54.20
2019-02-15T12:40:13.225Z,44.53
2019-02-15T12:42:42.320Z,46.37
2019-02-15T12:45:11.555Z,37.30
2019-02-15T12:47:40.674Z,34.00
2019-02-15T12:50:10.798Z,37.67
2019-02-15T12:52:39.912Z,41.27
2019-02-15T12:55:09.106Z,39.97
2019-02-15T12:57:38.226Z,42.00
2019-02-15T13:00:10.651Z,38.07
2019-02-15T13:02:39.771Z,36.33
2019-02-15T13:05:09.348Z,35.87
2019-02-15T13:07:38.516Z,34.37
2019-02-15T13:10:08.928Z,38.93
2019-02-15T13:12:38.113Z,35.03
2019-02-15T13:15:07.439Z,37.33
2019-02-15T13:17:36.594Z,37.27
2019-02-15T13:20:05.807Z,38.50
2019-02-15T13:22:34.936Z,34.20
2019-02-15T13:25:04.436Z,40.63
2019-02-15T13:27:33.521Z,36.67
2019-02-15T13:30:02.644Z,35.40
2019-02-15T13:32:32.926Z,39.60
2019-02-15T13:35:02.056Z,38.30
2019-02-15T13:37:31.163Z,35.93
2019-02-15T13:40:00.374Z,34.27
2019-02-15T13:42:29.522Z,35.53
2019-02-15T13:44:58.633Z,36.17
2019-02-15T13:47:34.163Z,37.13
2019-02-15T13:49:58.536Z,36.93
2019-02-15T13:52:27.719Z,41.97
2019-02-15T13:54:56.888Z,38.67
2019-02-15T13:57:26.370Z,41.60
2019-02-15T13:59:55.509Z,40.70
2019-02-15T14:02:24.731Z,42.63
2019-02-15T14:04:53.978Z,36.90
2019-02-15T14:07:23.126Z,42.00
2019-02-15T14:09:52.379Z,41.10
2019-02-15T14:12:21.485Z,36.53
2019-02-15T14:14:50.656Z,35.53
2019-02-15T14:17:19.746Z,40.70
2019-02-15T14:19:48.960Z,35.20
2019-02-15T14:22:19.044Z,36.47
2019-02-15T14:24:48.659Z,36.30
2019-02-15T14:27:17.790Z,32.97
2019-02-15T14:29:47.004Z,35.40
2019-02-15T14:32:16.143Z,32.40
2019-02-15T14:34:45.329Z,32.00
2019-02-15T14:37:14.440Z,30.73
2019-02-15T14:39:43.571Z,30.93
2019-02-15T14:42:12.691Z,32.47
2019-02-15T14:44:41.808Z,29.67
2019-02-15T14:47:10.905Z,27.70
2019-02-15T14:49:40.038Z,29.43
2019-02-15T14:52:09.146Z,27.53
2019-02-15T14:54:38.315Z,27.13
2019-02-15T14:57:07.462Z,29.27
2019-02-15T14:59:36.590Z,29.93
2019-02-15T15:02:05.719Z,27.37
2019-02-15T15:04:34.896Z,28.20
2019-02-15T15:07:04.143Z,28.90
2019-02-15T15:09:33.263Z,32.57
2019-02-15T15:12:02.385Z,28.63
2019-02-15T15:14:31.994Z,32.10
2019-02-15T15:17:01.126Z,30.80
2019-02-15T15:19:30.275Z,28.87
2019-02-15T15:21:59.414Z,26.43
2019-02-15T15:24:28.644Z,29.47
2019-02-15T15:26:57.894Z,28.73
2019-02-15T15:29:27.110Z,30.20
2019-02-15T15:31:56.245Z,26.77
2019-02-15T15:34:25.383Z,25.60
2019-02-15T15:36:54.576Z,28.53
2019-02-15T15:39:23.703Z,27.53
2019-02-15T15:41:52.858Z,29.13
2019-02-15T15:44:22.051Z,25.30
2019-02-15T15:46:51.170Z,28.67
2019-02-15T15:49:20.269Z,24.30
2019-02-15T15:51:49.406Z,26.73
2019-02-15T15:54:18.500Z,24.80
2019-02-15T15:56:47.633Z,27.50
2019-02-15T15:59:16.772Z,27.60
2019-02-15T16:01:45.971Z,27.93
2019-02-15T16:04:15.095Z,31.10
2019-02-15T16:06:44.218Z,28.10
2019-02-15T16:09:13.351Z,29.03
2019-02-15T16:11:42.734Z,27.10
2019-02-15T16:14:11.887Z,26.70
2019-02-15T16:16:41.290Z,29.33
2019-02-15T16:19:11.497Z,29.50
2019-02-15T16:21:40.617Z,27.97
2019-02-15T16:24:12.642Z,25.90
2019-02-15T16:26:40.586Z,25.10
2019-02-15T16:29:09.738Z,29.77
2019-02-15T16:31:38.861Z,29.57
2019-02-15T16:34:08.037Z,25.23
2019-02-15T16:36:37.205Z,27.33
2019-02-15T16:39:06.435Z,27.53
2019-02-15T16:41:35.562Z,26.90
2019-02-15T16:44:04.795Z,25.40
2019-02-15T16:46:34.001Z,24.77
2019-02-15T16:49:03.628Z,27.83
2019-02-15T16:51:32.825Z,25.67
2019-02-15T16:54:02.130Z,27.43
2019-02-15T16:56:31.251Z,26.40
2019-02-15T16:59:00.517Z,26.37
2019-02-15T17:01:29.751Z,26.20
2019-02-15T17:03:58.891Z,28.73
2019-02-15T17:06:28.027Z,26.73
2019-02-15T17:08:57.167Z,29.20
2019-02-15T17:11:26.377Z,26.40
2019-02-15T17:13:55.514Z,26.87
2019-02-15T17:16:24.655Z,26.27
2019-02-15T17:18:53.835Z,26.40
2019-02-15T17:21:23.322Z,29.67
2019-02-15T17:23:52.489Z,26.97
2019-02-15T17:26:21.690Z,28.10
2019-02-15T17:28:50.786Z,25.77
2019-02-15T17:31:19.893Z,25.50
2019-02-15T17:33:49.031Z,28.07
2019-02-15T17:36:18.175Z,26.00
2019-02-15T17:38:48.371Z,22.83
2019-02-15T17:41:18.572Z,24.47
2019-02-15T17:43:47.705Z,28.10
2019-02-15T17:46:16.956Z,23.60
2019-02-15T17:48:46.206Z,25.27
2019-02-15T17:51:15.402Z,25.40
2019-02-15T17:53:44.540Z,22.97
2019-02-15T17:56:13.766Z,23.53
2019-02-15T17:58:43.000Z,25.00
2019-02-15T18:01:12.223Z,23.90
2019-02-15T18:03:41.486Z,24.07
2019-02-15T18:06:11.071Z,25.43
2019-02-15T18:08:40.218Z,25.20
2019-02-15T18:11:09.382Z,25.73
2019-02-15T18:13:38.580Z,21.80
2019-02-15T18:16:08.069Z,23.67
2019-02-15T18:18:37.210Z,22.40
2019-02-15T18:21:06.318Z,24.10
2019-02-15T18:23:35.489Z,24.03
2019-02-15T18:26:04.682Z,25.33
2019-02-15T18:28:33.879Z,26.80
2019-02-15T18:31:03.034Z,23.20
2019-02-15T18:33:32.286Z,23.93
2019-02-15T18:36:01.542Z,25.63
2019-02-15T18:38:30.702Z,26.67
2019-02-15T18:41:00.251Z,23.80
2019-02-15T18:43:29.479Z,27.97
2019-02-15T18:45:58.702Z,22.77
2019-02-15T18:48:27.999Z,25.63
2019-02-15T18:50:57.272Z,27.30
2019-02-15T18:53:26.444Z,26.47
2019-02-15T18:55:55.630Z,25.03
2019-02-15T18:58:24.832Z,28.00
2019-02-15T19:00:54.336Z,27.97
2019-02-15T19:03:24.702Z,29.47
2019-02-15T19:05:53.817Z,25.73
2019-02-15T19:08:22.990Z,28.80
2019-02-15T19:10:52.086Z,28.23
2019-02-15T19:13:22.350Z,28.13
2019-02-15T19:15:51.507Z,25.57
2019-02-15T19:18:20.737Z,24.67
2019-02-15T19:20:49.904Z,23.57
2019-02-15T19:23:19.142Z,25.30
2019-02-15T19:25:48.326Z,26.77
2019-02-15T19:28:17.552Z,26.27
2019-02-15T19:30:46.770Z,20.80
2019-02-15T19:33:16.018Z,21.70
2019-02-15T19:35:46.150Z,22.23
2019-02-15T19:38:15.334Z,21.30
2019-02-15T19:40:44.482Z,21.13
2019-02-15T19:43:13.603Z,20.87
2019-02-15T19:45:43.010Z,20.77
2019-02-15T19:48:12.110Z,20.73
2019-02-15T19:50:41.232Z,22.57
2019-02-15T19:53:10.365Z,20.63
2019-02-15T19:56:04.739Z,21.23
2019-02-15T19:58:33.977Z,25.93
2019-02-15T20:01:03.083Z,22.10
2019-02-15T20:03:32.192Z,20.27
2019-02-15T20:06:01.328Z,23.27
2019-02-15T20:08:30.526Z,22.07
2019-02-15T20:10:59.678Z,20.93
2019-02-15T20:13:28.808Z,25.83
2019-02-15T20:15:58.101Z,21.97
2019-02-15T20:18:27.372Z,22.80
2019-02-15T20:20:56.591Z,21.17
2019-02-15T20:23:25.802Z,21.30
2019-02-15T20:25:54.942Z,21.00
2019-02-15T20:28:24.037Z,22.47
2019-02-15T20:30:53.147Z,20.87
2019-02-15T20:33:22.326Z,22.17
2019-02-15T20:35:51.440Z,20.07
2019-02-15T20:38:20.543Z,22.23
2019-02-15T20:40:49.668Z,21.53
2019-02-15T20:43:18.812Z,22.37
2019-02-15T20:45:48.057Z,20.77
2019-02-15T20:48:17.352Z,17.80
2019-02-15T20:50:46.721Z,19.07
2019-02-15T20:53:15.839Z,22.27
2019-02-15T20:55:45.006Z,20.27
2019-02-15T20:58:14.120Z,17.93
2019-02-15T21:00:43.240Z,21.27
2019-02-15T21:03:12.338Z,22.23
2019-02-15T21:05:41.488Z,19.40
2019-02-15T21:08:10.734Z,18.23
2019-02-15T21:10:40.005Z,23.17
2019-02-15T21:13:09.101Z,24.23
2019-02-15T21:15:38.249Z,21.03
2019-02-15T21:18:07.396Z,20.00
2019-02-15T21:20:36.524Z,18.07
2019-02-15T21:23:05.665Z,19.40
2019-02-15T21:25:34.848Z,17.57
2019-02-15T21:28:03.986Z,17.87
2019-02-15T21:30:33.167Z,18.80
2019-02-15T21:33:02.398Z,21.23
2019-02-15T21:35:31.533Z,19.87
2019-02-15T21:38:00.629Z,19.13
2019-02-15T21:40:29.769Z,17.93
2019-02-15T21:42:58.941Z,17.27
2019-02-15T21:45:28.135Z,15.60
2019-02-15T21:47:57.332Z,18.80
2019-02-15T21:50:26.527Z,16.60
2019-02-15T21:52:55.710Z,18.13
2019-02-15T21:55:24.831Z,18.27
2019-02-15T21:58:01.173Z,20.67
2019-02-15T22:00:26.987Z,16.97
2019-02-15T22:02:56.142Z,19.40
2019-02-15T22:05:25.294Z,20.50
2019-02-15T22:07:54.404Z,18.33
2019-02-15T22:10:23.506Z,17.40
2019-02-15T22:12:52.647Z,20.87
2019-02-15T22:15:21.776Z,19.57
2019-02-15T22:17:50.913Z,19.10
2019-02-15T22:20:26.237Z,18.93
2019-02-15T22:22:50.871Z,16.40
2019-02-15T22:25:19.982Z,17.60
2019-02-15T22:27:49.172Z,17.97
2019-02-15T22:30:18.314Z,16.93
2019-02-15T22:32:47.435Z,18.73
2019-02-15T22:35:17.614Z,19.53
2019-02-15T22:37:46.794Z,16.60
2019-02-15T22:40:25.806Z,17.37
2019-02-15T22:42:55.099Z,16.50
2019-02-15T22:45:24.202Z,16.80
2019-02-15T22:47:53.432Z,18.70
2019-02-15T22:50:22.528Z,19.20
2019-02-15T22:52:51.654Z,16.30
2019-02-15T22:55:20.786Z,15.87
2019-02-15T22:57:49.965Z,15.80
2019-02-15T23:00:25.015Z,21.20
2019-02-15T23:02:55.745Z,20.27
2019-02-15T23:05:24.870Z,21.60
2019-02-15T23:07:54.156Z,17.37
2019-02-15T23:10:23.265Z,18.30
2019-02-15T23:12:52.378Z,14.93
2019-02-15T23:15:21.479Z,18.93
2019-02-15T23:17:50.601Z,19.90
2019-02-15T23:20:19.712Z,18.17
2019-02-15T23:22:48.855Z,22.50
2019-02-15T23:25:17.959Z,19.80
2019-02-15T23:27:47.101Z,15.63
2019-02-15T23:30:16.306Z,14.53
2019-02-15T23:32:45.465Z,14.53
2019-02-15T23:35:14.593Z,12.67
2019-02-15T23:37:43.725Z,14.10
2019-02-15T23:40:12.829Z,16.47
2019-02-15T23:42:41.938Z,17.43
2019-02-15T23:45:11.059Z,14.40
2019-02-15T23:47:40.176Z,13.13
2019-02-15T23:50:09.279Z,13.83
2019-02-15T23:52:38.515Z,13.70
2019-02-15T23:55:07.604Z,17.03
2019-02-15T23:57:36.710Z,13.50
